Lexington, Missouri
Current Conditions -  °F | °C
As of 6:35 PM on Friday 28 Nov 2014 (Local Time) from KGPH Reporting Station
Clear Clear  
Wind Chill: 11°   Ceiling: Unl
Heat Index: 11°   Visibility: 10mi
Dew Point:   Wind: 6mph
Humidity: 50%   Direction: 160°SSE
Pressure: 29.78"   Gusts: NA
Location:  39.18°N, 93.88°W
Report Text: KGPH 290035Z AUTO 16005KT 10SM CLR 11/01 A2978 RMK AO2
Loading
Personal Weather Stations






























Interactive Weather Map New forecast layout! Learn more

10-Day Weather Forecast

Advertisements
Track Severe Weather on mobile